Time;durP1;ratioP1;P1;durP2;ratioP2;P2;SDS_P1;SDS_P2;PMS_P1;PMS_P2;Temp;Humidity;BMP_temperature;BMP_pressure;BME280_temperature;BME280_humidity;BME280_pressure;Samples;Min_cycle;Max_cycle;Signal;HPM_P1;HPM_P2
2022/11/28 00:01:29;;;;;;;15.30;13.70;;;;;;;1.17;100.00;97197.78;5027283;28;20592;-71
2022/11/28 00:03:57;;;;;;;15.77;14.07;;;;;;;1.17;100.00;97192.56;5020124;28;20412;-71
2022/11/28 00:06:26;;;;;;;15.30;12.70;;;;;;;1.14;100.00;97189.25;4976763;28;20377;-70
2022/11/28 00:08:54;;;;;;;14.20;12.70;;;;;;;1.09;100.00;97187.97;5031624;28;20214;-71
2022/11/28 00:11:23;;;;;;;15.00;13.33;;;;;;;1.01;100.00;97181.59;5005334;28;20237;-71
2022/11/28 00:13:50;;;;;;;15.50;12.70;;;;;;;1.06;100.00;97185.59;4993639;28;20235;-71
2022/11/28 00:16:20;;;;;;;14.50;13.03;;;;;;;0.95;100.00;97186.50;4988209;28;20414;-70
2022/11/28 00:18:49;;;;;;;14.73;13.23;;;;;;;0.97;100.00;97184.59;5025434;28;20203;-70
2022/11/28 00:21:17;;;;;;;15.07;13.40;;;;;;;0.92;100.00;97177.13;4968163;28;20408;-72
2022/11/28 00:23:46;;;;;;;16.73;13.43;;;;;;;0.90;100.00;97171.19;4966090;28;22330;-71
2022/11/28 00:26:17;;;;;;;16.27;13.60;;;;;;;0.92;100.00;97169.28;5000820;28;20539;-71
2022/11/28 00:28:47;;;;;;;16.57;14.30;;;;;;;0.82;100.00;97166.59;5030920;28;20410;-70
2022/11/28 00:31:16;;;;;;;16.87;14.70;;;;;;;0.80;100.00;97165.06;5009632;28;20246;-71
2022/11/28 00:33:44;;;;;;;18.87;14.60;;;;;;;0.76;100.00;97159.25;5030204;28;20207;-72
2022/11/28 00:36:12;;;;;;;18.03;15.67;;;;;;;0.82;100.00;97166.59;5006118;28;20216;-71
2022/11/28 00:38:40;;;;;;;18.87;15.97;;;;;;;0.86;100.00;97161.97;4980194;28;20754;-67
2022/11/28 00:41:10;;;;;;;15.87;13.90;;;;;;;0.83;100.00;97165.63;5021962;28;20401;-73
2022/11/28 00:43:38;;;;;;;18.43;14.13;;;;;;;0.88;100.00;97164.44;5031717;28;20204;-69
2022/11/28 00:46:07;;;;;;;15.77;13.63;;;;;;;0.82;100.00;97153.53;4997104;28;20216;-70
2022/11/28 00:48:36;;;;;;;14.57;13.07;;;;;;;0.89;100.00;97159.09;5025999;28;20773;-71
2022/11/28 00:51:07;;;;;;;18.73;15.00;;;;;;;0.91;100.00;97164.19;5023971;28;20238;-71
2022/11/28 00:53:35;;;;;;;15.10;13.37;;;;;;;0.95;100.00;97160.41;4993761;28;20219;-71
2022/11/28 00:56:04;;;;;;;15.30;13.50;;;;;;;0.97;100.00;97168.94;4983011;28;20207;-71
2022/11/28 00:58:32;;;;;;;15.47;13.50;;;;;;;0.92;100.00;97158.84;5023352;28;20227;-71
2022/11/28 01:01:00;;;;;;;16.83;13.70;;;;;;;0.94;100.00;97156.09;4995682;28;20694;-72
2022/11/28 01:03:29;;;;;;;16.00;13.63;;;;;;;0.95;100.00;97156.00;5038593;28;20447;-71
2022/11/28 01:05:57;;;;;;;16.90;14.03;;;;;;;0.92;100.00;97156.25;5032779;28;20487;-70
2022/11/28 01:08:25;;;;;;;15.63;14.07;;;;;;;0.89;100.00;97150.44;5004421;28;20234;-70
2022/11/28 01:10:52;;;;;;;15.53;13.97;;;;;;;0.90;100.00;97145.13;4978662;28;20806;-71
2022/11/28 01:13:20;;;;;;;15.17;13.37;;;;;;;0.86;100.00;97144.53;5025558;28;20204;-71
2022/11/28 01:15:48;;;;;;;14.40;13.00;;;;;;;0.87;100.00;97140.16;5030267;28;20192;-71
2022/11/28 01:18:16;;;;;;;15.77;12.90;;;;;;;0.82;100.00;97132.69;5006049;28;20603;-72
2022/11/28 01:20:45;;;;;;;16.07;13.43;;;;;;;0.88;100.00;97131.38;5026880;28;20250;-72
2022/11/28 01:23:13;;;;;;;14.57;13.10;;;;;;;0.86;100.00;97122.84;5002193;28;20223;-71
2022/11/28 01:25:40;;;;;;;13.93;12.53;;;;;;;0.84;100.00;97117.72;4982310;28;22003;-69
2022/11/28 01:28:08;;;;;;;14.43;12.70;;;;;;;0.80;100.00;97112.91;5023515;28;20231;-71
2022/11/28 01:30:36;;;;;;;16.07;13.40;;;;;;;0.69;100.00;97113.75;5024887;28;20964;-70
2022/11/28 01:33:04;;;;;;;15.87;12.30;;;;;;;0.62;100.00;97113.41;5008428;28;20218;-71
2022/11/28 01:35:31;;;;;;;14.27;12.67;;;;;;;0.68;100.00;97114.72;5026090;28;20211;-70
2022/11/28 01:38:00;;;;;;;13.57;12.07;;;;;;;0.59;100.00;97111.06;5001606;28;20223;-71
2022/11/28 01:40:28;;;;;;;13.73;12.33;;;;;;;0.51;100.00;97106.44;5030341;28;20243;-70
2022/11/28 01:42:56;;;;;;;13.60;12.30;;;;;;;0.54;100.00;97108.81;4978225;28;20220;-71
2022/11/28 01:45:26;;;;;;;13.57;11.03;;;;;;;0.47;100.00;97109.44;5023636;28;20685;-70
2022/11/28 01:47:57;;;;;;;12.93;11.50;;;;;;;0.39;100.00;97107.44;5006806;28;20855;-70
2022/11/28 01:50:26;;;;;;;16.67;11.97;;;;;;;0.34;100.00;97099.97;5034902;28;20614;-70
2022/11/28 01:52:56;;;;;;;12.37;11.13;;;;;;;0.27;100.00;97096.19;4999252;28;20520;-68
2022/11/28 01:55:27;;;;;;;13.83;10.60;;;;;;;0.19;100.00;97102.03;5030482;28;20733;-69
2022/11/28 01:57:56;;;;;;;12.80;10.90;;;;;;;0.14;100.00;97088.50;4973931;28;25888;-71
2022/11/28 02:00:23;;;;;;;12.13;10.83;;;;;;;0.09;100.00;97085.44;5023678;28;20601;-69
2022/11/28 02:02:53;;;;;;;12.43;11.13;;;;;;;0.11;100.00;97096.56;5000034;28;20713;-68
2022/11/28 02:05:22;;;;;;;11.50;10.30;;;;;;;0.09;100.00;97098.47;5035469;28;20208;-69
2022/11/28 02:07:50;;;;;;;12.37;11.07;;;;;;;0.13;100.00;97097.28;5024498;28;20228;-70
2022/11/28 02:10:21;;;;;;;12.57;11.27;;;;;;;0.10;100.00;97100.13;4998146;28;20208;-70
2022/11/28 02:13:26;;;;;;;14.00;11.20;;;;;;;0.11;100.00;97097.41;5022110;28;20476;-69
2022/11/28 02:16:16;;;;;;;12.07;10.20;;;;;;;0.14;100.00;97091.13;4961223;28;20215;-70
2022/11/28 02:18:55;;;;;;;12.97;10.87;;;;;;;0.19;100.00;97086.41;4996366;28;20319;-70
2022/11/28 02:21:40;;;;;;;11.57;10.30;;;;;;;0.18;100.00;97095.13;5019458;28;20589;-71
2022/11/28 02:24:26;;;;;;;12.47;11.17;;;;;;;0.18;100.00;97087.31;5001092;28;20697;-70
2022/11/28 02:27:19;;;;;;;10.83;9.83;;;;;;;0.26;100.00;97089.31;5023349;28;20238;-70
2022/11/28 02:30:04;;;;;;;12.67;11.37;;;;;;;0.25;100.00;97085.91;4971329;28;20226;-69
2022/11/28 02:32:42;;;;;;;15.07;10.50;;;;;;;0.27;100.00;97088.38;4937795;28;20528;-70
2022/11/28 02:35:14;;;;;;;12.70;11.03;;;;;;;0.30;100.00;97080.31;5024120;28;20208;-70
2022/11/28 02:37:50;;;;;;;12.60;11.20;;;;;;;0.30;100.00;97079.50;5027538;28;20620;-70
2022/11/28 02:40:22;;;;;;;14.17;11.07;;;;;;;0.22;100.00;97074.88;4993309;28;20219;-70
2022/11/28 02:42:58;;;;;;;12.03;10.80;;;;;;;0.14;100.00;97068.50;5020728;28;20204;-69
2022/11/28 02:45:29;;;;;;;11.97;10.20;;;;;;;0.25;100.00;97067.66;4995279;28;20258;-71
2022/11/28 02:48:02;;;;;;;12.30;11.03;;;;;;;0.19;100.00;97070.75;4974263;28;20242;-72
2022/11/28 02:50:32;;;;;;;11.77;10.40;;;;;;;0.27;100.00;97077.94;5017963;28;20212;-71
2022/11/28 02:53:05;;;;;;;13.23;10.93;;;;;;;0.30;100.00;97079.50;5022159;28;20269;-71
2022/11/28 02:55:32;;;;;;;11.43;10.40;;;;;;;0.39;100.00;97078.75;4996590;28;20207;-71
2022/11/28 02:58:00;;;;;;;14.20;10.90;;;;;;;0.36;100.00;97082.44;5024425;28;20725;-69
2022/11/28 03:00:32;;;;;;;11.10;10.00;;;;;;;0.34;100.00;97080.91;4998643;28;20338;-70
2022/11/28 03:03:26;;;;;;;12.57;11.17;;;;;;;0.31;100.00;97086.38;4981795;28;20223;-70
2022/11/28 03:05:58;;;;;;;14.87;11.23;;;;;;;0.37;100.00;97096.31;5021164;28;20216;-69
2022/11/28 03:08:36;;;;;;;11.43;10.33;;;;;;;0.29;100.00;97102.13;5021676;28;20771;-70
2022/11/28 03:11:10;;;;;;;10.77;9.70;;;;;;;0.31;100.00;97102.81;4998864;28;20224;-68
2022/11/28 03:13:40;;;;;;;12.77;11.43;;;;;;;0.26;100.00;97094.53;5025302;28;20444;-71
2022/11/28 03:16:16;;;;;;;12.33;10.93;;;;;;;0.26;100.00;97092.78;4999365;28;20540;-71
2022/11/28 03:18:51;;;;;;;11.93;10.43;;;;;;;0.19;100.00;97082.94;4974824;28;20494;-71
2022/11/28 03:21:24;;;;;;;12.10;10.83;;;;;;;0.32;100.00;97090.63;5020490;28;20211;-71
2022/11/28 03:23:56;;;;;;;11.63;10.53;;;;;;;0.24;100.00;97080.81;5021786;28;20224;-70
2022/11/28 03:26:29;;;;;;;11.37;10.10;;;;;;;0.15;100.00;97069.31;4990806;28;20448;-70
2022/11/28 03:29:01;;;;;;;12.37;11.00;;;;;;;0.14;100.00;97072.88;5022432;28;20216;-71
2022/11/28 03:31:34;;;;;;;11.90;9.97;;;;;;;0.11;100.00;97066.16;4993139;28;20318;-73
2022/11/28 03:34:04;;;;;;;12.67;10.40;;;;;;;0.11;100.00;97060.09;4968847;28;20247;-71
2022/11/28 03:36:35;;;;;;;12.27;10.97;;;;;;;0.01;100.00;97052.19;5021267;28;20458;-71
2022/11/28 03:39:07;;;;;;;11.47;10.27;;;;;;;0.08;100.00;97050.75;5031406;28;20210;-71
2022/11/28 03:41:39;;;;;;;11.53;10.33;;;;;;;0.06;100.00;97057.03;4990337;28;20925;-71
2022/11/28 03:44:09;;;;;;;11.27;9.77;;;;;;;0.14;100.00;97058.09;5023277;28;20449;-70
2022/11/28 03:46:41;;;;;;;11.63;10.60;;;;;;;0.04;100.00;97053.72;4994734;28;20223;-71
2022/11/28 03:49:11;;;;;;;10.87;9.77;;;;;;;0.06;100.00;97047.44;4981790;28;20211;-71
2022/11/28 03:51:43;;;;;;;11.73;10.53;;;;;;;-0.03;100.00;97042.94;5021793;28;20231;-71
2022/11/28 03:54:12;;;;;;;11.33;10.13;;;;;;;-0.05;100.00;97040.47;5026601;28;20318;-70
2022/11/28 03:56:44;;;;;;;12.23;10.80;;;;;;;-0.03;100.00;97045.56;4988169;28;20216;-70
2022/11/28 03:59:18;;;;;;;12.80;10.87;;;;;;;-0.17;100.00;97026.63;5027315;28;20560;-70
2022/11/28 04:01:53;;;;;;;10.83;9.73;;;;;;;-0.16;100.00;97024.88;5002164;28;20478;-71
2022/11/28 04:04:28;;;;;;;10.77;9.67;;;;;;;-0.21;100.00;97024.38;4980768;28;20225;-70
2022/11/28 04:06:58;;;;;;;11.73;10.47;;;;;;;-0.28;100.00;97016.25;5026241;28;20586;-70
2022/11/28 04:09:38;;;;;;;12.47;10.47;;;;;;;-0.33;100.00;97023.59;4989541;28;20310;-67
2022/11/28 04:12:10;;;;;;;10.43;9.43;;;;;;;-0.38;100.00;97021.31;5014949;28;20239;-71
2022/11/28 04:14:42;;;;;;;11.07;9.97;;;;;;;-0.32;100.00;97028.66;5006594;28;20437;-70
2022/11/28 04:17:13;;;;;;;10.33;8.83;;;;;;;-0.33;100.00;97021.78;5001570;28;20254;-69
2022/11/28 04:19:45;;;;;;;10.83;9.90;;;;;;;-0.34;100.00;97021.94;4973010;28;20698;-70
2022/11/28 04:22:16;;;;;;;12.60;11.40;;;;;;;-0.31;100.00;97026.91;5014978;28;20283;-70
2022/11/28 04:24:49;;;;;;;10.27;9.27;;;;;;;-0.27;100.00;97028.31;5018729;28;20207;-71
2022/11/28 04:27:21;;;;;;;11.47;10.37;;;;;;;-0.28;100.00;97018.84;5027789;28;20223;-72
2022/11/28 04:29:51;;;;;;;13.70;11.80;;;;;;;-0.30;100.00;97026.75;4993506;28;20273;-70
2022/11/28 04:32:20;;;;;;;13.07;11.77;;;;;;;-0.28;100.00;97031.03;4999171;28;20252;-68
2022/11/28 04:34:52;;;;;;;15.93;14.17;;;;;;;-0.25;100.00;97020.38;4980172;28;20207;-71
2022/11/28 04:37:21;;;;;;;13.43;11.97;;;;;;;-0.28;100.00;97011.03;5023226;28;20231;-70
2022/11/28 04:39:50;;;;;;;10.83;9.77;;;;;;;-0.22;100.00;97012.31;4963317;28;20528;-73
2022/11/28 04:42:21;;;;;;;10.13;9.13;;;;;;;-0.22;100.00;97004.50;5005483;28;20205;-69
2022/11/28 04:44:52;;;;;;;11.50;10.27;;;;;;;-0.25;100.00;97004.75;5015965;28;20204;-69
2022/11/28 04:47:21;;;;;;;10.73;9.63;;;;;;;-0.26;100.00;97003.09;4981592;28;20239;-70
2022/11/28 04:49:50;;;;;;;11.57;10.00;;;;;;;-0.30;100.00;96992.09;5024337;28;20677;-69
2022/11/28 04:52:21;;;;;;;11.13;9.93;;;;;;;-0.35;100.00;96982.03;4995329;28;20492;-70
2022/11/28 04:54:54;;;;;;;11.07;9.70;;;;;;;-0.36;100.00;96988.19;4965472;28;20978;-69
2022/11/28 04:57:24;;;;;;;10.23;9.23;;;;;;;-0.32;100.00;96979.19;5017303;28;20216;-72
2022/11/28 04:59:53;;;;;;;12.17;10.80;;;;;;;-0.43;100.00;96976.59;5019636;28;20422;-71
2022/11/28 05:02:21;;;;;;;11.63;10.43;;;;;;;-0.43;100.00;96987.03;4990398;28;20321;-72
2022/11/28 05:04:52;;;;;;;12.00;10.37;;;;;;;-0.42;100.00;96973.06;5029811;28;20212;-70
2022/11/28 05:07:20;;;;;;;11.40;9.57;;;;;;;-0.45;100.00;96966.31;4997306;28;20243;-70
2022/11/28 05:09:48;;;;;;;12.27;10.33;;;;;;;-0.45;100.00;96971.50;4972275;28;20216;-70
2022/11/28 05:12:16;;;;;;;11.73;10.57;;;;;;;-0.49;100.00;96966.69;5014647;28;20835;-69
2022/11/28 05:14:44;;;;;;;11.87;9.87;;;;;;;-0.59;100.00;96969.16;5030354;28;20219;-72
2022/11/28 05:17:12;;;;;;;10.63;9.40;;;;;;;-0.63;100.00;96963.34;4992075;28;21177;-72
2022/11/28 05:19:40;;;;;;;9.90;8.90;;;;;;;-0.54;100.00;96959.22;5027570;28;20455;-70
2022/11/28 05:22:09;;;;;;;10.97;9.87;;;;;;;-0.51;100.00;96960.78;4997458;28;20619;-72
2022/11/28 05:24:37;;;;;;;12.53;9.67;;;;;;;-0.52;100.00;96964.31;5038105;28;20572;-72
2022/11/28 05:27:06;;;;;;;9.87;8.90;;;;;;;-0.52;100.00;96953.91;4973083;28;20849;-71
2022/11/28 05:29:34;;;;;;;11.50;9.73;;;;;;;-0.54;100.00;96951.41;5029541;28;20196;-72
2022/11/28 05:32:02;;;;;;;11.23;10.13;;;;;;;-0.63;100.00;96955.56;5019480;28;20399;-70
2022/11/28 05:34:30;;;;;;;10.93;9.57;;;;;;;-0.56;100.00;96955.09;4999652;28;20203;-71
2022/11/28 05:36:58;;;;;;;12.53;10.90;;;;;;;-0.57;100.00;96956.84;4997088;28;20224;-71
2022/11/28 05:39:27;;;;;;;10.00;9.00;;;;;;;-0.54;100.00;96940.19;4996823;28;20318;-68
2022/11/28 05:41:55;;;;;;;10.97;9.63;;;;;;;-0.57;100.00;96937.78;4973358;28;20250;-71
2022/11/28 05:44:23;;;;;;;11.80;10.43;;;;;;;-0.59;100.00;96936.16;5022418;28;20210;-71
2022/11/28 05:46:53;;;;;;;11.63;9.70;;;;;;;-0.48;100.00;96934.50;5031185;28;20215;-71
2022/11/28 05:49:22;;;;;;;11.07;9.97;;;;;;;-0.45;100.00;96940.28;5004372;28;20436;-73
2022/11/28 05:51:50;;;;;;;11.93;10.80;;;;;;;-0.42;100.00;96938.38;5023353;28;20739;-70
2022/11/28 05:54:17;;;;;;;15.10;11.47;;;;;;;-0.45;100.00;96929.84;4999224;28;20540;-71
2022/11/28 05:56:50;;;;;;;10.80;9.67;;;;;;;-0.47;100.00;96918.75;5019151;28;20250;-71
2022/11/28 05:59:19;;;;;;;10.67;9.57;;;;;;;-0.43;100.00;96927.16;4987022;28;20376;-69
2022/11/28 06:01:47;;;;;;;9.97;8.90;;;;;;;-0.38;100.00;96930.22;5017623;28;20240;-71
2022/11/28 06:04:15;;;;;;;18.43;13.20;;;;;;;-0.29;100.00;96928.66;5003027;28;20227;-72
2022/11/28 06:06:43;;;;;;;13.53;10.63;;;;;;;-0.23;100.00;96932.53;5020446;28;20237;-69
2022/11/28 06:09:10;;;;;;;13.97;11.43;;;;;;;-0.21;100.00;96922.81;5000468;28;20210;-71
2022/11/28 06:11:38;;;;;;;10.63;9.53;;;;;;;-0.22;100.00;96926.38;4993672;28;20762;-72
2022/11/28 06:14:07;;;;;;;11.10;8.67;;;;;;;-0.31;100.00;96920.97;4979582;28;20711;-70
2022/11/28 06:16:35;;;;;;;11.00;9.90;;;;;;;-0.36;100.00;96922.28;5029376;28;20511;-70
2022/11/28 06:19:05;;;;;;;10.67;9.53;;;;;;;-0.42;100.00;96923.59;4989664;28;21040;-73
2022/11/28 06:21:33;;;;;;;11.97;10.00;;;;;;;-0.49;100.00;96936.25;5011531;28;20211;-71
2022/11/28 06:24:01;;;;;;;10.50;9.40;;;;;;;-0.45;100.00;96942.88;4983755;28;20222;-71
2022/11/28 06:26:29;;;;;;;10.67;9.67;;;;;;;-0.44;100.00;96933.31;5027214;28;20204;-71
2022/11/28 06:28:57;;;;;;;11.43;10.33;;;;;;;-0.43;100.00;96937.56;4998991;28;20894;-71
2022/11/28 06:31:27;;;;;;;11.47;10.27;;;;;;;-0.40;100.00;96928.66;5026459;28;20874;-69
2022/11/28 06:33:55;;;;;;;11.77;9.90;;;;;;;-0.35;100.00;96940.38;5029046;28;20717;-72
2022/11/28 06:36:23;;;;;;;11.00;9.97;;;;;;;-0.30;100.00;96934.81;4998656;28;20710;-71
2022/11/28 06:38:51;;;;;;;11.87;10.33;;;;;;;-0.24;100.00;96923.91;5004760;28;20211;-71
2022/11/28 06:41:20;;;;;;;12.17;10.97;;;;;;;-0.25;100.00;96932.66;5008091;28;20208;-71
2022/11/28 06:43:47;;;;;;;12.83;9.83;;;;;;;-0.20;100.00;96927.91;4996526;28;20793;-70
2022/11/28 06:46:17;;;;;;;14.67;12.60;;;;;;;-0.16;100.00;96928.50;5021431;28;20250;-70
2022/11/28 06:48:47;;;;;;;14.50;12.67;;;;;;;-0.06;100.00;96933.78;4960665;28;20776;-69
2022/11/28 06:51:16;;;;;;;13.13;11.00;;;;;;;-0.12;100.00;96923.88;4989905;28;20298;-72
2022/11/28 06:53:44;;;;;;;12.37;11.07;;;;;;;-0.07;100.00;96919.97;4998976;28;20233;-69
2022/11/28 06:56:13;;;;;;;11.90;10.70;;;;;;;-0.09;100.00;96901.03;5000075;28;20408;-69
2022/11/28 06:58:41;;;;;;;12.43;10.83;;;;;;;-0.11;100.00;96884.69;5028243;28;20228;-72
2022/11/28 07:01:11;;;;;;;11.27;10.00;;;;;;;-0.09;100.00;96871.53;5028614;28;20210;-70
2022/11/28 07:03:40;;;;;;;11.43;10.07;;;;;;;-0.10;100.00;96851.66;4976416;28;20754;-71
2022/11/28 07:06:09;;;;;;;11.97;10.40;;;;;;;-0.17;100.00;96839.13;5030734;28;20206;-70
2022/11/28 07:08:45;;;;;;;11.07;9.87;;;;;;;-0.17;100.00;96870.38;5031642;28;20223;-71
2022/11/28 07:11:15;;;;;;;11.03;9.80;;;;;;;-0.08;100.00;96917.47;4986519;28;20401;-71
2022/11/28 07:13:44;;;;;;;11.30;10.10;;;;;;;-0.05;100.00;96907.63;5028866;28;20322;-71
2022/11/28 07:16:14;;;;;;;10.60;9.33;;;;;;;0.01;100.00;96869.00;5022428;28;20409;-73
2022/11/28 07:18:43;;;;;;;10.80;9.07;;;;;;;-0.07;100.00;96877.44;4981119;28;20231;-71
2022/11/28 07:21:13;;;;;;;11.83;10.40;;;;;;;-0.02;100.00;96889.16;5015341;28;20323;-71
2022/11/28 07:23:42;;;;;;;10.70;9.60;;;;;;;0.10;100.00;96883.88;5028401;28;20269;-71
2022/11/28 07:26:11;;;;;;;12.03;10.73;;;;;;;0.12;100.00;96889.78;5009738;28;20380;-70
2022/11/28 07:28:39;;;;;;;10.17;9.13;;;;;;;0.28;100.00;96903.22;5004690;28;20242;-70
2022/11/28 07:31:09;;;;;;;13.03;10.67;;;;;;;0.29;100.00;96893.63;5016705;28;20219;-71
2022/11/28 07:33:37;;;;;;;12.87;9.40;;;;;;;0.35;100.00;96897.50;4974950;28;20238;-71
2022/11/28 07:36:07;;;;;;;9.33;8.43;;;;;;;0.43;100.00;96893.31;5026358;28;20434;-72
2022/11/28 07:38:36;;;;;;;10.23;9.23;;;;;;;0.43;100.00;96885.50;5023381;28;20521;-69
2022/11/28 07:41:05;;;;;;;11.43;10.33;;;;;;;0.50;100.00;96877.97;4989440;28;20310;-72
2022/11/28 07:43:33;;;;;;;11.83;10.50;;;;;;;0.61;100.00;96890.13;5001705;28;20211;-71
2022/11/28 07:46:04;;;;;;;12.30;11.10;;;;;;;0.74;100.00;96884.72;5025091;28;20220;-71
2022/11/28 07:48:32;;;;;;;11.43;10.43;;;;;;;0.81;100.00;96874.59;5031383;28;20231;-71
2022/11/28 07:51:00;;;;;;;10.37;9.37;;;;;;;0.84;100.00;96867.31;4971421;28;20571;-71
2022/11/28 07:53:27;;;;;;;9.90;8.90;;;;;;;0.92;100.00;96856.22;5014418;28;20614;-69
2022/11/28 07:56:01;;;;;;;9.93;8.93;;;;;;;0.84;100.00;96856.06;4993106;28;20215;-70
2022/11/28 07:58:29;;;;;;;11.67;8.60;;;;;;;0.80;100.00;96842.44;5002263;28;20228;-69
2022/11/28 08:00:57;;;;;;;10.23;9.07;;;;;;;0.65;100.00;96849.78;5019551;28;20204;-71
2022/11/28 08:03:25;;;;;;;10.17;9.17;;;;;;;0.60;100.00;96865.00;5031192;28;20211;-72
2022/11/28 08:05:52;;;;;;;10.10;9.10;;;;;;;0.73;100.00;96864.81;4981660;28;20218;-70
2022/11/28 08:08:20;;;;;;;10.33;9.23;;;;;;;0.89;100.00;96853.06;5027962;28;20505;-71
2022/11/28 08:10:48;;;;;;;10.43;8.80;;;;;;;1.07;100.00;96856.72;4999788;28;20207;-69
2022/11/28 08:13:18;;;;;;;11.23;10.07;;;;;;;1.00;100.00;96871.25;4993203;28;20485;-68
2022/11/28 08:15:46;;;;;;;10.30;9.30;;;;;;;1.04;100.00;96877.00;5028589;28;20203;-71
2022/11/28 08:18:13;;;;;;;10.93;9.70;;;;;;;1.07;100.00;96880.19;5026103;28;20231;-71
2022/11/28 08:20:41;;;;;;;9.83;8.87;;;;;;;1.15;100.00;96884.75;4972878;28;20211;-69
2022/11/28 08:23:09;;;;;;;10.67;9.20;;;;;;;1.30;100.00;96903.47;5025097;28;20225;-68
2022/11/28 08:25:37;;;;;;;9.77;8.80;;;;;;;1.28;100.00;96923.66;5023616;28;20208;-71
2022/11/28 08:28:04;;;;;;;9.47;8.57;;;;;;;1.30;100.00;96926.97;4987931;28;20232;-71
2022/11/28 08:30:34;;;;;;;9.33;8.43;;;;;;;1.17;100.00;96918.53;4997350;28;20223;-70
2022/11/28 08:33:01;;;;;;;9.30;8.40;;;;;;;1.18;100.00;96917.59;5018338;28;20719;-70
2022/11/28 08:35:29;;;;;;;8.80;8.00;;;;;;;1.21;100.00;96932.97;5023804;28;20231;-72
2022/11/28 08:37:57;;;;;;;8.80;8.00;;;;;;;1.28;100.00;96934.09;4975733;28;20224;-71
2022/11/28 08:40:28;;;;;;;9.43;8.50;;;;;;;1.29;100.00;96933.97;5028296;28;20277;-70
2022/11/28 08:42:58;;;;;;;9.87;8.77;;;;;;;1.19;100.00;96934.88;4995100;28;20295;-72
2022/11/28 08:45:26;;;;;;;9.57;8.53;;;;;;;1.22;100.00;96940.69;4993900;28;20533;-71
2022/11/28 08:47:55;;;;;;;12.30;8.97;;;;;;;1.15;100.00;96939.56;5024417;28;20575;-70
2022/11/28 08:50:22;;;;;;;10.37;8.70;;;;;;;1.26;100.00;96938.63;5030955;28;20215;-71
2022/11/28 08:52:50;;;;;;;9.70;8.80;;;;;;;1.43;100.00;96938.00;4974368;28;20228;-71
2022/11/28 08:55:18;;;;;;;9.97;8.97;;;;;;;1.43;100.00;96938.00;4962227;28;20224;-71
2022/11/28 08:57:58;;;;;;;11.30;9.07;;;;;;;1.58;100.00;96929.81;5029386;28;20227;-71
2022/11/28 09:00:26;;;;;;;12.87;9.80;;;;;;;1.51;100.00;96947.78;5029687;28;20212;-71
2022/11/28 09:02:55;;;;;;;9.90;8.53;;;;;;;1.26;100.00;96943.84;5025494;28;20292;-71
2022/11/28 09:05:23;;;;;;;11.73;10.60;;;;;;;1.40;100.00;96948.72;5027869;28;20215;-71
2022/11/28 09:07:50;;;;;;;10.90;9.90;;;;;;;1.39;100.00;96952.28;5022147;28;20544;-71
2022/11/28 09:10:18;;;;;;;9.77;8.97;;;;;;;1.58;100.00;96956.75;4975045;28;20754;-71
2022/11/28 09:12:46;;;;;;;10.33;9.33;;;;;;;1.67;100.00;96955.09;5033178;28;20449;-72
2022/11/28 09:15:14;;;;;;;11.50;10.30;;;;;;;1.61;100.00;96952.22;5026384;28;20231;-70
2022/11/28 09:17:42;;;;;;;10.83;9.80;;;;;;;1.50;100.00;96951.34;5027474;28;20232;-70
2022/11/28 09:20:12;;;;;;;11.43;10.33;;;;;;;1.46;100.00;96952.56;5032787;28;20214;-72
2022/11/28 09:22:41;;;;;;;12.13;10.87;;;;;;;1.68;100.00;96956.75;5023687;28;20212;-72
2022/11/28 09:25:09;;;;;;;15.57;12.97;;;;;;;1.70;100.00;96946.19;5023657;28;20212;-72
2022/11/28 09:27:37;;;;;;;11.47;10.27;;;;;;;1.71;100.00;96937.41;4980368;28;20767;-71
2022/11/28 09:30:06;;;;;;;13.27;11.93;;;;;;;1.56;100.00;96931.72;5030815;28;20200;-70
2022/11/28 09:32:34;;;;;;;11.30;10.10;;;;;;;1.58;100.00;96935.03;4987739;28;20219;-72
2022/11/28 09:35:02;;;;;;;13.07;11.60;;;;;;;1.54;100.00;96937.09;5021092;28;20228;-71
2022/11/28 09:37:31;;;;;;;12.90;11.60;;;;;;;1.44;100.00;96924.00;5005077;28;20910;-73
2022/11/28 09:39:59;;;;;;;12.17;10.87;;;;;;;1.51;100.00;96913.03;5028310;28;20204;-70
2022/11/28 09:42:42;;;;;;;12.50;10.27;;;;;;;1.68;100.00;96867.16;4988206;28;20729;-72
2022/11/28 09:45:12;;;;;;;12.37;11.17;;;;;;;1.56;100.00;96853.38;5026043;28;20202;-71
2022/11/28 09:47:43;;;;;;;13.00;11.70;;;;;;;1.71;100.00;96846.81;5025715;28;20303;-71
2022/11/28 09:50:15;;;;;;;11.73;10.53;;;;;;;1.76;100.00;96842.97;5029812;28;20204;-70
2022/11/28 09:52:49;;;;;;;10.87;9.83;;;;;;;1.79;100.00;96829.63;5002803;28;20830;-72
2022/11/28 09:55:20;;;;;;;11.63;10.53;;;;;;;1.97;100.00;96841.03;5023250;28;20220;-71
2022/11/28 09:57:50;;;;;;;10.67;9.40;;;;;;;2.21;100.00;96841.56;4973705;28;20521;-72
2022/11/28 10:00:20;;;;;;;11.60;10.43;;;;;;;2.39;100.00;96839.03;5008633;28;20576;-72
2022/11/28 10:03:15;;;;;;;9.10;8.20;;;;;;;2.35;100.00;96822.00;5017481;28;20206;-71
2022/11/28 10:05:48;;;;;;;10.50;8.17;;;;;;;2.34;100.00;96830.81;5022194;28;20217;-72
2022/11/28 10:08:23;;;;;;;9.20;8.30;;;;;;;2.46;100.00;96840.13;4996660;28;20242;-71
2022/11/28 10:10:57;;;;;;;8.20;7.50;;;;;;;2.47;100.00;96849.66;5029915;28;20204;-71
2022/11/28 10:13:30;;;;;;;12.13;8.90;;;;;;;2.58;100.00;96854.72;4975177;28;20325;-71
2022/11/28 10:16:21;;;;;;;9.60;8.70;;;;;;;2.60;100.00;96863.25;5017107;28;20227;-70
2022/11/28 10:18:51;;;;;;;9.50;7.73;;;;;;;2.70;100.00;96865.84;5021756;28;20207;-68
2022/11/28 10:21:25;;;;;;;8.90;8.10;;;;;;;2.83;100.00;96856.84;5018362;28;20417;-69
2022/11/28 10:23:57;;;;;;;11.10;10.03;;;;;;;2.91;100.00;96862.16;4992650;28;20210;-70
2022/11/28 10:26:31;;;;;;;10.10;9.20;;;;;;;3.22;100.00;96859.28;5018532;28;20408;-69
2022/11/28 10:29:00;;;;;;;9.37;8.57;;;;;;;3.34;100.00;96865.16;4965148;28;20580;-71
2022/11/28 10:31:32;;;;;;;14.93;13.23;;;;;;;3.59;100.00;96854.94;5025888;28;20409;-72
2022/11/28 10:34:05;;;;;;;18.47;14.87;;;;;;;3.45;100.00;96857.09;5029874;28;20204;-68
2022/11/28 10:36:35;;;;;;;8.50;7.70;;;;;;;3.47;100.00;96857.78;5026501;28;20535;-71
2022/11/28 10:39:10;;;;;;;10.40;9.40;;;;;;;3.42;100.00;96851.34;5026008;28;20214;-70
2022/11/28 10:41:40;;;;;;;8.13;7.40;;;;;;;3.58;100.00;96846.25;5026572;28;20235;-72
2022/11/28 10:44:14;;;;;;;8.10;7.23;;;;;;;3.49;100.00;96847.16;5006846;28;20426;-71
2022/11/28 10:46:57;;;;;;;8.47;7.67;;;;;;;3.81;99.38;96834.53;5029156;28;20218;-71
2022/11/28 10:49:33;;;;;;;9.20;7.77;;;;;;;3.54;98.59;96834.44;5015346;28;20338;-71
2022/11/28 10:52:08;;;;;;;8.47;7.60;;;;;;;3.63;97.63;96832.72;5024785;28;20210;-70
2022/11/28 10:55:04;;;;;;;9.30;6.90;;;;;;;3.55;97.26;96828.22;5017689;28;20989;-69
2022/11/28 10:57:38;;;;;;;8.53;6.87;;;;;;;3.31;96.08;96820.94;5010395;28;20310;-70
2022/11/28 11:00:11;;;;;;;7.07;6.43;;;;;;;3.46;98.51;96816.03;5000287;28;20682;-70
2022/11/28 11:02:41;;;;;;;6.90;6.30;;;;;;;3.29;98.78;96817.66;4956360;28;21483;-71
2022/11/28 11:05:12;;;;;;;10.37;9.43;;;;;;;3.16;99.92;96816.19;4990146;28;20437;-69
2022/11/28 11:07:46;;;;;;;10.53;9.47;;;;;;;3.10;100.00;96808.91;5028556;28;20223;-68
2022/11/28 11:10:18;;;;;;;11.07;9.20;;;;;;;3.23;100.00;96800.72;4991926;28;20581;-72
2022/11/28 11:12:47;;;;;;;10.20;8.83;;;;;;;3.08;100.00;96803.00;5022055;28;20404;-70
2022/11/28 11:15:17;;;;;;;7.80;7.17;;;;;;;3.10;100.00;96802.88;5019017;28;20235;-72
2022/11/28 11:17:44;;;;;;;7.63;6.90;;;;;;;3.33;100.00;96804.09;4989877;28;20494;-69
2022/11/28 11:20:32;;;;;;;9.37;7.57;;;;;;;3.11;100.00;96801.91;5016048;28;20204;-71
2022/11/28 11:23:02;;;;;;;7.70;7.10;;;;;;;3.03;100.00;96805.22;5015040;28;20208;-67
2022/11/28 11:25:32;;;;;;;7.80;7.00;;;;;;;3.13;100.00;96815.66;5025181;28;20208;-71
2022/11/28 11:28:03;;;;;;;7.60;6.80;;;;;;;3.28;100.00;96810.75;4990110;28;20927;-70
2022/11/28 11:30:33;;;;;;;7.77;6.87;;;;;;;3.14;100.00;96805.03;5014986;28;20211;-70
2022/11/28 11:33:02;;;;;;;8.10;7.30;;;;;;;3.13;100.00;96792.91;4980291;28;20645;-70
2022/11/28 11:35:31;;;;;;;7.47;6.83;;;;;;;3.16;99.28;96795.22;5026717;28;20238;-69